Time;durP1;ratioP1;P1;durP2;ratioP2;P2;SDS_P1;SDS_P2;PMS_P1;PMS_P2;Temp;Humidity;BMP_temperature;BMP_pressure;BME280_temperature;BME280_humidity;BME280_pressure;Samples;Min_cycle;Max_cycle;Signal;HPM_P1;HPM_P2
2021/08/19 00:01:05;;;;;;;3.05;2.85;;;16.60;99.90;;;;;;5016677;28;20214;-67
2021/08/19 00:03:32;;;;;;;3.17;2.97;;;16.60;99.90;;;;;;5018399;28;20207;-67
2021/08/19 00:06:00;;;;;;;2.63;2.53;;;16.50;99.90;;;;;;5019004;28;20691;-67
2021/08/19 00:08:27;;;;;;;5.63;3.25;;;16.50;99.90;;;;;;5020936;28;20754;-67
2021/08/19 00:10:54;;;;;;;3.30;3.00;;;16.50;99.90;;;;;;5020811;28;20353;-67
2021/08/19 00:13:21;;;;;;;3.35;3.15;;;16.50;99.90;;;;;;5019268;28;20297;-67
2021/08/19 00:15:47;;;;;;;2.95;2.75;;;16.50;99.90;;;;;;5020742;28;20221;-67
2021/08/19 00:18:14;;;;;;;3.15;2.90;;;16.50;99.90;;;;;;5018553;28;20203;-68
2021/08/19 00:20:41;;;;;;;3.05;2.85;;;16.50;99.90;;;;;;5016347;28;20226;-67
2021/08/19 00:23:09;;;;;;;3.20;3.00;;;16.50;99.90;;;;;;5019862;28;20226;-67
2021/08/19 00:25:39;;;;;;;3.10;2.90;;;16.40;99.90;;;;;;5014512;28;20764;-67
2021/08/19 00:28:06;;;;;;;4.03;3.72;;;16.40;99.90;;;;;;5017326;28;20699;-67
2021/08/19 00:30:33;;;;;;;3.88;3.58;;;16.50;99.90;;;;;;5015014;28;20290;-67
2021/08/19 00:33:00;;;;;;;3.55;3.35;;;16.50;99.90;;;;;;5017942;28;20719;-67
2021/08/19 00:35:27;;;;;;;3.70;3.10;;;16.50;99.90;;;;;;5016706;28;20206;-67
2021/08/19 00:37:54;;;;;;;3.50;2.92;;;16.40;99.90;;;;;;5011894;28;20265;-67
2021/08/19 00:40:23;;;;;;;2.78;2.63;;;16.40;99.90;;;;;;5016628;28;20326;-67
2021/08/19 00:42:52;;;;;;;3.60;3.35;;;16.30;99.90;;;;;;5019649;28;20199;-67
2021/08/19 00:45:21;;;;;;;2.95;2.75;;;16.40;99.90;;;;;;5017077;28;20242;-67
2021/08/19 00:47:48;;;;;;;3.60;3.30;;;16.40;99.90;;;;;;5018026;28;20206;-67
2021/08/19 00:50:18;;;;;;;5.15;3.00;;;16.40;99.90;;;;;;5017315;28;20199;-67
2021/08/19 00:52:45;;;;;;;3.22;2.92;;;16.40;99.90;;;;;;5020551;28;20214;-67
2021/08/19 00:55:14;;;;;;;3.10;2.90;;;16.40;99.90;;;;;;5020498;28;20679;-67
2021/08/19 00:57:43;;;;;;;3.50;3.25;;;16.50;99.90;;;;;;5013697;28;20210;-67
2021/08/19 01:00:13;;;;;;;3.53;3.33;;;16.50;99.90;;;;;;5015885;28;20308;-67
2021/08/19 01:02:43;;;;;;;3.50;3.08;;;16.50;99.90;;;;;;5019152;28;20205;-67
2021/08/19 01:05:11;;;;;;;3.50;3.20;;;16.50;99.90;;;;;;5015909;28;20564;-67
2021/08/19 01:07:38;;;;;;;3.65;3.22;;;16.40;99.90;;;;;;5021489;28;20216;-67
2021/08/19 01:10:05;;;;;;;3.97;2.70;;;16.40;99.90;;;;;;5019099;28;20208;-67
2021/08/19 01:12:32;;;;;;;2.90;2.70;;;16.50;99.90;;;;;;5017325;28;20202;-67
2021/08/19 01:15:01;;;;;;;3.00;2.80;;;16.50;99.90;;;;;;5017050;28;20301;-67
2021/08/19 01:17:30;;;;;;;3.33;3.03;;;16.50;99.90;;;;;;5014272;28;20210;-67
2021/08/19 01:19:57;;;;;;;3.20;3.00;;;16.40;99.90;;;;;;5016325;28;20733;-67
2021/08/19 01:22:25;;;;;;;3.00;2.80;;;16.40;99.90;;;;;;5020954;28;20209;-67
2021/08/19 01:24:52;;;;;;;2.90;2.70;;;16.40;99.90;;;;;;5014459;28;20205;-67
2021/08/19 01:27:21;;;;;;;3.00;2.80;;;16.40;99.90;;;;;;5018255;28;20949;-67
2021/08/19 01:29:50;;;;;;;2.95;2.75;;;16.40;99.90;;;;;;5019581;28;20199;-67
2021/08/19 01:32:18;;;;;;;2.90;2.70;;;16.40;99.90;;;;;;5014630;28;20207;-67
2021/08/19 01:34:45;;;;;;;2.63;2.53;;;16.30;99.90;;;;;;5016048;28;20301;-67
2021/08/19 01:37:13;;;;;;;3.05;2.85;;;16.30;99.90;;;;;;5014287;28;20541;-67
2021/08/19 01:39:40;;;;;;;2.55;2.35;;;16.30;99.90;;;;;;5013254;28;20234;-67
2021/08/19 01:42:07;;;;;;;2.42;2.33;;;16.30;99.90;;;;;;5016294;28;20203;-67
2021/08/19 01:44:35;;;;;;;2.70;2.50;;;16.40;99.90;;;;;;5016699;28;20280;-67
2021/08/19 01:47:04;;;;;;;2.40;2.30;;;16.40;99.90;;;;;;5019923;28;20211;-67
2021/08/19 01:49:32;;;;;;;2.70;2.50;;;16.30;99.90;;;;;;5018937;28;20206;-67
2021/08/19 01:52:00;;;;;;;2.72;2.53;;;16.30;99.90;;;;;;5016694;28;20202;-67
2021/08/19 01:54:27;;;;;;;2.78;2.58;;;16.40;99.90;;;;;;5013787;28;20206;-67
2021/08/19 01:56:55;;;;;;;3.13;2.88;;;16.40;99.90;;;;;;5014886;28;20203;-67
2021/08/19 01:59:22;;;;;;;2.60;2.40;;;16.40;99.90;;;;;;5011015;28;20591;-67
2021/08/19 02:01:51;;;;;;;2.40;2.30;;;16.30;99.90;;;;;;5017272;28;20753;-67
2021/08/19 02:04:17;;;;;;;2.80;2.60;;;16.20;99.90;;;;;;5015137;28;20202;-67
2021/08/19 02:06:44;;;;;;;2.70;2.50;;;16.20;99.90;;;;;;5015505;28;20199;-67
2021/08/19 02:09:11;;;;;;;2.40;2.30;;;16.20;99.90;;;;;;5016475;28;20747;-67
2021/08/19 02:11:39;;;;;;;3.00;2.80;;;16.20;99.90;;;;;;5019929;28;20238;-67
2021/08/19 02:14:06;;;;;;;3.00;2.80;;;16.20;99.90;;;;;;5015735;28;20206;-67
2021/08/19 02:16:33;;;;;;;2.65;2.55;;;16.20;99.90;;;;;;5014157;28;20203;-67
2021/08/19 02:19:02;;;;;;;2.30;2.20;;;16.20;99.90;;;;;;5022512;28;20265;-67
2021/08/19 02:21:28;;;;;;;3.03;2.80;;;16.30;99.90;;;;;;5022021;28;20289;-67
2021/08/19 02:23:55;;;;;;;2.50;2.40;;;16.20;99.90;;;;;;5010969;28;20241;-67
2021/08/19 02:26:22;;;;;;;2.70;2.47;;;16.30;99.90;;;;;;5014539;28;20203;-67
2021/08/19 02:28:49;;;;;;;2.50;2.30;;;16.30;99.90;;;;;;5013273;28;20201;-67
2021/08/19 02:31:16;;;;;;;3.00;2.80;;;16.30;99.90;;;;;;5013647;28;20266;-67
2021/08/19 02:33:45;;;;;;;2.47;2.38;;;16.20;99.90;;;;;;5016000;28;20615;-67
2021/08/19 02:36:13;;;;;;;2.65;2.55;;;16.10;99.90;;;;;;5014729;28;20281;-67
2021/08/19 02:38:40;;;;;;;2.75;2.63;;;16.20;99.90;;;;;;5009413;28;20642;-67
2021/08/19 02:41:07;;;;;;;2.78;2.58;;;16.20;99.90;;;;;;5018610;28;20235;-67
2021/08/19 02:43:38;;;;;;;2.47;2.05;;;16.20;99.90;;;;;;5017137;28;20609;-67
2021/08/19 02:46:05;;;;;;;2.58;2.38;;;16.30;99.90;;;;;;5021445;28;20317;-68
2021/08/19 02:48:32;;;;;;;2.22;2.13;;;16.40;99.90;;;;;;5017539;28;20289;-67
2021/08/19 02:50:58;;;;;;;2.22;2.13;;;16.50;99.90;;;;;;5020056;28;20511;-68
2021/08/19 02:53:27;;;;;;;2.80;2.60;;;16.50;99.90;;;;;;5017450;28;20277;-67
2021/08/19 02:55:54;;;;;;;2.90;2.60;;;16.50;99.90;;;;;;5011629;28;20291;-67
2021/08/19 02:58:20;;;;;;;2.50;2.30;;;16.40;99.90;;;;;;5014666;28;20203;-67
2021/08/19 03:00:47;;;;;;;2.33;2.22;;;16.50;99.90;;;;;;5013708;28;20236;-67
2021/08/19 03:03:14;;;;;;;2.20;2.10;;;16.60;99.90;;;;;;5014373;28;20265;-67
2021/08/19 03:05:41;;;;;;;2.50;2.40;;;16.60;99.90;;;;;;5015663;28;20217;-67
2021/08/19 03:08:08;;;;;;;2.45;2.25;;;16.40;99.90;;;;;;5019666;28;20207;-67
2021/08/19 03:10:37;;;;;;;2.78;2.45;;;16.30;99.90;;;;;;5014731;28;20217;-67
2021/08/19 03:13:03;;;;;;;2.75;2.22;;;16.30;99.90;;;;;;5014874;28;20671;-67
2021/08/19 03:15:30;;;;;;;2.33;2.13;;;16.30;99.90;;;;;;5018933;28;20206;-67
2021/08/19 03:17:57;;;;;;;2.22;2.13;;;16.40;99.90;;;;;;5013687;28;20199;-67
2021/08/19 03:20:25;;;;;;;2.70;2.50;;;16.30;99.90;;;;;;5006665;28;20241;-67
2021/08/19 03:22:51;;;;;;;2.65;2.53;;;16.30;99.90;;;;;;5013764;28;20298;-67
2021/08/19 03:25:19;;;;;;;2.45;2.25;;;16.20;99.90;;;;;;5011566;28;20207;-67
2021/08/19 03:27:47;;;;;;;2.45;2.35;;;16.10;99.90;;;;;;5012624;28;20303;-67
2021/08/19 03:30:14;;;;;;;2.60;2.40;;;16.10;99.90;;;;;;5012236;28;20943;-67
2021/08/19 03:32:41;;;;;;;2.75;2.58;;;16.00;99.90;;;;;;5018424;28;20206;-67
2021/08/19 03:35:10;;;;;;;2.72;2.53;;;16.10;99.90;;;;;;5018786;28;20229;-67
2021/08/19 03:37:37;;;;;;;2.97;2.67;;;16.00;99.90;;;;;;5017792;28;20276;-67
2021/08/19 03:40:05;;;;;;;2.60;2.40;;;16.00;99.90;;;;;;5019622;28;20229;-67
2021/08/19 03:42:32;;;;;;;2.70;2.50;;;16.00;99.90;;;;;;5020271;28;20284;-67
2021/08/19 03:45:00;;;;;;;2.95;2.75;;;16.00;99.90;;;;;;5024678;28;20735;-67
2021/08/19 03:47:28;;;;;;;3.30;3.00;;;16.00;99.90;;;;;;5022682;28;20324;-68
2021/08/19 03:49:55;;;;;;;3.55;2.80;;;15.90;99.90;;;;;;5017982;28;20872;-68
2021/08/19 03:52:22;;;;;;;2.95;2.70;;;15.90;99.90;;;;;;5019465;28;20220;-68
2021/08/19 03:54:50;;;;;;;2.80;2.60;;;16.00;99.90;;;;;;5022768;28;20211;-68
2021/08/19 03:57:17;;;;;;;3.13;2.92;;;16.00;99.90;;;;;;5018954;28;20315;-68
2021/08/19 03:59:44;;;;;;;2.88;2.67;;;16.00;99.90;;;;;;5019747;28;20232;-68
2021/08/19 04:02:12;;;;;;;2.78;2.58;;;16.00;99.90;;;;;;5021205;28;20213;-67
2021/08/19 04:04:38;;;;;;;2.60;2.50;;;16.00;99.90;;;;;;5019077;28;20199;-67
2021/08/19 04:07:08;;;;;;;2.42;2.33;;;15.90;99.90;;;;;;5019587;28;20834;-67
2021/08/19 04:09:35;;;;;;;2.90;2.70;;;15.90;99.90;;;;;;5016265;28;20211;-67
2021/08/19 04:12:02;;;;;;;2.50;2.28;;;15.90;99.90;;;;;;5022695;28;20209;-67
2021/08/19 04:14:29;;;;;;;2.60;2.40;;;15.90;99.90;;;;;;5017047;28;20578;-67
2021/08/19 04:16:55;;;;;;;3.10;2.90;;;15.90;99.90;;;;;;5017145;28;20393;-67
2021/08/19 04:19:24;;;;;;;3.30;3.10;;;15.90;99.90;;;;;;5014438;28;20887;-68
2021/08/19 04:21:51;;;;;;;3.28;2.88;;;16.00;99.90;;;;;;5018595;28;20712;-68
2021/08/19 04:24:18;;;;;;;3.13;2.85;;;15.90;99.90;;;;;;5022350;28;20675;-68
2021/08/19 04:26:45;;;;;;;2.65;2.55;;;15.90;99.90;;;;;;5018998;28;20322;-68
2021/08/19 04:29:13;;;;;;;2.85;2.65;;;15.90;99.90;;;;;;5017790;28;20213;-67
2021/08/19 04:31:40;;;;;;;2.33;2.13;;;15.90;99.90;;;;;;5016135;28;20195;-67
2021/08/19 04:34:07;;;;;;;2.80;2.60;;;16.00;99.90;;;;;;5019335;28;20231;-67
2021/08/19 04:36:35;;;;;;;3.80;2.60;;;16.30;99.90;;;;;;5014518;28;20704;-67
2021/08/19 04:39:02;;;;;;;2.75;2.55;;;16.30;99.90;;;;;;5014053;28;20198;-67
2021/08/19 04:41:30;;;;;;;3.42;3.13;;;16.40;99.90;;;;;;5018215;28;20707;-67
2021/08/19 04:43:56;;;;;;;2.75;2.65;;;16.40;99.90;;;;;;5013785;28;20211;-68
2021/08/19 04:46:23;;;;;;;2.60;2.40;;;16.40;99.90;;;;;;5016868;28;20203;-67
2021/08/19 04:48:50;;;;;;;3.10;2.90;;;16.30;99.90;;;;;;5014991;28;20759;-68
2021/08/19 04:51:17;;;;;;;3.15;2.85;;;16.10;99.90;;;;;;5014408;28;20226;-68
2021/08/19 04:53:46;;;;;;;2.65;2.45;;;16.20;99.90;;;;;;5010885;28;20298;-67
2021/08/19 04:56:12;;;;;;;2.60;2.50;;;16.40;99.90;;;;;;5012209;28;20290;-67
2021/08/19 04:58:39;;;;;;;2.92;2.72;;;16.30;99.90;;;;;;5016311;28;20204;-67
2021/08/19 05:01:06;;;;;;;3.05;2.50;;;16.40;99.90;;;;;;5013824;28;20702;-67
2021/08/19 05:03:33;;;;;;;2.70;2.45;;;16.40;99.90;;;;;;5022810;28;20206;-67
2021/08/19 05:05:59;;;;;;;2.85;2.70;;;16.50;99.90;;;;;;5017800;28;20203;-67
2021/08/19 05:08:26;;;;;;;2.72;2.53;;;16.50;99.90;;;;;;5017414;28;20298;-67
2021/08/19 05:10:55;;;;;;;2.92;2.72;;;16.40;99.90;;;;;;5019846;28;20321;-67
2021/08/19 05:13:23;;;;;;;3.30;3.00;;;16.40;99.90;;;;;;5019305;28;20213;-67
2021/08/19 05:15:53;;;;;;;3.17;2.80;;;16.30;99.90;;;;;;5016421;28;20231;-66
2021/08/19 05:18:20;;;;;;;2.53;2.42;;;16.20;99.90;;;;;;5016977;28;20214;-67
2021/08/19 05:20:47;;;;;;;2.63;2.47;;;16.20;99.90;;;;;;5018753;28;20699;-66
2021/08/19 05:23:13;;;;;;;4.80;2.90;;;16.20;99.90;;;;;;5017983;28;20207;-67
2021/08/19 05:25:40;;;;;;;2.90;2.70;;;16.30;99.90;;;;;;5017805;28;20309;-66
2021/08/19 05:28:08;;;;;;;3.22;2.95;;;16.50;99.90;;;;;;5017000;28;20210;-67
2021/08/19 05:30:35;;;;;;;3.00;2.80;;;16.60;99.90;;;;;;5012364;28;20214;-66
2021/08/19 05:33:02;;;;;;;2.50;2.30;;;16.50;99.90;;;;;;5020325;28;20662;-66
2021/08/19 05:35:31;;;;;;;4.03;2.70;;;16.60;99.90;;;;;;5024335;28;20210;-66
2021/08/19 05:37:58;;;;;;;3.30;2.65;;;16.50;99.90;;;;;;5020558;28;20211;-66
2021/08/19 05:40:25;;;;;;;2.65;2.45;;;16.50;99.90;;;;;;5017312;28;20703;-66
2021/08/19 05:42:52;;;;;;;2.95;2.75;;;16.40;99.90;;;;;;5018350;28;20214;-66
2021/08/19 05:45:20;;;;;;;4.30;2.53;;;16.40;99.90;;;;;;5016363;28;20207;-66
2021/08/19 05:47:47;;;;;;;3.20;2.90;;;16.30;99.90;;;;;;5017144;28;20662;-66
2021/08/19 05:50:16;;;;;;;3.15;2.90;;;16.20;99.90;;;;;;5015226;28;20207;-67
2021/08/19 05:52:43;;;;;;;3.10;2.90;;;16.40;99.90;;;;;;5016306;28;20210;-66
2021/08/19 05:55:11;;;;;;;4.38;2.67;;;16.40;99.90;;;;;;5018509;28;20201;-66
2021/08/19 05:57:38;;;;;;;3.20;3.00;;;16.50;99.90;;;;;;5019767;28;20207;-66
2021/08/19 06:00:07;;;;;;;3.38;2.90;;;16.30;99.90;;;;;;5014725;28;20203;-67
2021/08/19 06:02:35;;;;;;;2.70;2.50;;;16.20;99.90;;;;;;5015803;28;20217;-66
2021/08/19 06:05:02;;;;;;;2.75;2.55;;;16.40;99.90;;;;;;5016896;28;20282;-66
2021/08/19 06:07:28;;;;;;;2.70;2.50;;;16.50;99.90;;;;;;5019482;28;20214;-66
2021/08/19 06:09:55;;;;;;;2.55;2.38;;;16.50;99.90;;;;;;5018946;28;20234;-66
2021/08/19 06:12:22;;;;;;;2.88;2.67;;;16.60;99.90;;;;;;5016253;28;20262;-67
2021/08/19 06:14:51;;;;;;;2.45;2.30;;;16.50;99.90;;;;;;5016714;28;20211;-66
2021/08/19 06:17:18;;;;;;;3.13;2.92;;;16.50;99.90;;;;;;5014449;28;20206;-66
2021/08/19 06:19:46;;;;;;;3.30;3.00;;;16.40;99.90;;;;;;5018328;28;20289;-66
2021/08/19 06:22:13;;;;;;;2.90;2.70;;;16.40;99.90;;;;;;5016855;28;20331;-66
2021/08/19 06:24:40;;;;;;;2.83;2.63;;;16.50;99.90;;;;;;5015770;28;20209;-66
2021/08/19 06:27:06;;;;;;;2.55;2.35;;;16.60;99.90;;;;;;5013790;28;20206;-67
2021/08/19 06:29:33;;;;;;;2.65;2.45;;;16.60;99.90;;;;;;5019019;28;20207;-66
2021/08/19 06:32:00;;;;;;;2.65;2.45;;;16.60;99.90;;;;;;5015466;28;20245;-66
2021/08/19 06:34:28;;;;;;;3.08;2.75;;;16.70;99.90;;;;;;5016798;28;20270;-66
2021/08/19 06:36:56;;;;;;;2.65;2.42;;;16.80;99.90;;;;;;5012646;28;20265;-66
2021/08/19 06:39:23;;;;;;;2.45;2.35;;;16.90;99.90;;;;;;5016794;28;20743;-66
2021/08/19 06:41:50;;;;;;;2.72;2.50;;;16.90;99.90;;;;;;5016628;28;20329;-66
2021/08/19 06:44:17;;;;;;;4.00;2.90;;;17.10;99.90;;;;;;5014033;28;20209;-67
2021/08/19 06:46:44;;;;;;;2.65;2.45;;;17.20;99.90;;;;;;5020049;28;20293;-67
2021/08/19 06:49:11;;;;;;;2.92;2.72;;;17.30;99.90;;;;;;5018988;28;20209;-66
2021/08/19 06:51:38;;;;;;;2.40;2.30;;;17.50;99.90;;;;;;5020718;28;20199;-66
2021/08/19 06:54:06;;;;;;;4.53;2.60;;;17.50;99.90;;;;;;5014577;28;20458;-66
2021/08/19 06:56:33;;;;;;;2.55;2.45;;;17.60;99.90;;;;;;5014818;28;20554;-66
2021/08/19 06:59:00;;;;;;;3.10;2.50;;;17.70;99.90;;;;;;5013763;28;20601;-66
2021/08/19 07:01:26;;;;;;;2.40;2.20;;;17.80;99.90;;;;;;5016500;28;20507;-66
2021/08/19 07:03:54;;;;;;;2.23;2.13;;;18.00;99.90;;;;;;5019879;28;20468;-66
2021/08/19 07:06:23;;;;;;;2.60;2.50;;;18.20;99.90;;;;;;5035885;28;20470;-66
2021/08/19 07:08:50;;;;;;;2.20;2.10;;;18.40;99.90;;;;;;5030388;28;21107;-66
2021/08/19 07:11:18;;;;;;;2.23;2.00;;;18.50;99.90;;;;;;5032397;28;20461;-66
2021/08/19 07:13:46;;;;;;;2.00;1.90;;;18.70;99.90;;;;;;5032774;28;20460;-66
2021/08/19 07:16:12;;;;;;;2.00;1.90;;;18.80;99.90;;;;;;5036335;28;20555;-66
2021/08/19 07:18:39;;;;;;;1.90;1.80;;;19.00;99.90;;;;;;5034696;28;20497;-66
2021/08/19 07:21:06;;;;;;;2.50;2.30;;;19.30;99.90;;;;;;5036114;28;20495;-67
2021/08/19 07:23:33;;;;;;;6.10;2.10;;;19.60;99.90;;;;;;5033420;28;20621;-66
2021/08/19 07:26:00;;;;;;;2.57;1.87;;;20.00;99.90;;;;;;5032363;28;20474;-66
2021/08/19 07:28:28;;;;;;;2.37;2.17;;;20.20;99.90;;;;;;5035834;28;20460;-66
2021/08/19 07:30:55;;;;;;;2.30;2.20;;;20.40;99.90;;;;;;5034131;28;20631;-66
2021/08/19 07:33:22;;;;;;;2.10;1.90;;;20.60;99.90;;;;;;5034244;28;21008;-66
2021/08/19 07:35:49;;;;;;;2.00;1.83;;;21.00;99.90;;;;;;5034790;28;20452;-66
2021/08/19 07:38:18;;;;;;;1.87;1.77;;;21.10;99.90;;;;;;5034931;28;20459;-66
2021/08/19 07:40:46;;;;;;;2.00;1.90;;;21.20;99.90;;;;;;5032689;28;20528;-66
2021/08/19 07:43:13;;;;;;;2.03;1.80;;;21.70;98.90;;;;;;5032548;28;20541;-66
2021/08/19 07:45:41;;;;;;;1.67;1.57;;;21.90;98.80;;;;;;5033475;28;20460;-66
2021/08/19 07:48:09;;;;;;;1.70;1.60;;;22.00;99.10;;;;;;5030189;28;20471;-66
2021/08/19 07:50:36;;;;;;;2.50;2.17;;;22.40;98.40;;;;;;5031629;28;20539;-66
2021/08/19 07:53:04;;;;;;;2.00;1.90;;;22.70;96.90;;;;;;5033728;28;20890;-66
2021/08/19 07:55:31;;;;;;;1.93;1.83;;;23.20;96.70;;;;;;5034269;28;20507;-66
2021/08/19 07:57:58;;;;;;;2.83;2.63;;;23.30;97.50;;;;;;5031739;28;20471;-66
2021/08/19 08:00:27;;;;;;;2.37;2.20;;;23.10;97.40;;;;;;5033890;28;21049;-66
2021/08/19 08:02:56;;;;;;;2.20;2.10;;;23.00;96.00;;;;;;5031463;28;20573;-66
2021/08/19 08:05:25;;;;;;;3.20;2.10;;;22.90;95.80;;;;;;5030237;28;20559;-66
2021/08/19 08:07:54;;;;;;;2.47;1.83;;;22.50;97.00;;;;;;5039784;28;20476;-66
2021/08/19 08:10:21;;;;;;;1.80;1.70;;;22.50;96.40;;;;;;5032554;28;20468;-66
2021/08/19 08:12:48;;;;;;;1.80;1.70;;;22.40;96.60;;;;;;5031763;28;21306;-66
2021/08/19 08:15:14;;;;;;;2.20;2.00;;;22.40;97.60;;;;;;5031332;28;20464;-66
2021/08/19 08:17:41;;;;;;;2.10;1.77;;;22.30;96.60;;;;;;5025525;28;20465;-66
2021/08/19 08:20:11;;;;;;;1.93;1.83;;;22.20;97.10;;;;;;5026343;28;20468;-66
2021/08/19 08:22:40;;;;;;;1.90;1.80;;;22.10;97.20;;;;;;5038174;28;20530;-66
2021/08/19 08:25:08;;;;;;;2.00;1.90;;;22.00;98.70;;;;;;5032955;28;20552;-66
2021/08/19 08:27:35;;;;;;;2.33;2.17;;;21.80;98.40;;;;;;5036891;28;20457;-66
2021/08/19 08:30:03;;;;;;;1.90;1.80;;;21.90;99.20;;;;;;5034692;28;20895;-66
2021/08/19 08:32:30;;;;;;;2.77;1.83;;;21.70;97.40;;;;;;5041458;28;21067;-66
2021/08/19 08:34:57;;;;;;;1.97;1.87;;;22.00;96.90;;;;;;5033391;28;20487;-66
2021/08/19 08:37:26;;;;;;;2.53;1.70;;;22.40;96.30;;;;;;5037870;28;20463;-66
2021/08/19 08:39:53;;;;;;;1.60;1.50;;;22.70;96.70;;;;;;5034440;28;21136;-66
2021/08/19 08:42:20;;;;;;;1.70;1.60;;;23.00;95.90;;;;;;5033246;28;20508;-66
2021/08/19 08:44:47;;;;;;;1.90;1.80;;;23.20;95.50;;;;;;5032431;28;20461;-66
2021/08/19 08:47:16;;;;;;;1.90;1.80;;;23.00;94.80;;;;;;5037098;28;20457;-66
2021/08/19 08:49:43;;;;;;;1.90;1.80;;;23.50;94.80;;;;;;5039123;28;20465;-65
2021/08/19 08:52:10;;;;;;;1.80;1.70;;;23.90;94.50;;;;;;5040176;28;20464;-66
2021/08/19 08:54:39;;;;;;;2.27;2.07;;;24.00;95.20;;;;;;5031965;28;20459;-66
2021/08/19 08:57:06;;;;;;;1.63;1.60;;;23.80;94.80;;;;;;5036333;28;20462;-67
2021/08/19 08:59:33;;;;;;;2.17;1.97;;;23.40;94.00;;;;;;5037061;28;20472;-66
2021/08/19 09:01:59;;;;;;;4.57;2.37;;;23.10;94.40;;;;;;5035024;28;20588;-65
2021/08/19 09:04:26;;;;;;;2.20;1.80;;;23.40;95.60;;;;;;5035030;28;20802;-66
2021/08/19 09:06:53;;;;;;;1.73;1.63;;;23.70;94.60;;;;;;5037082;28;21000;-66
2021/08/19 09:09:21;;;;;;;1.97;1.87;;;23.90;94.90;;;;;;5035466;28;20473;-66
2021/08/19 09:11:54;;;;;;;2.23;1.40;;;23.90;94.30;;;;;;5036937;28;20867;-66
2021/08/19 09:14:23;;;;;;;2.20;2.10;;;23.70;94.00;;;;;;5037214;28;20445;-66
2021/08/19 09:16:51;;;;;;;2.80;1.60;;;23.40;93.20;;;;;;5032861;28;20561;-66
2021/08/19 09:19:20;;;;;;;2.00;1.90;;;23.10;94.40;;;;;;5038007;28;20458;-66
2021/08/19 09:21:49;;;;;;;1.90;1.80;;;22.80;95.40;;;;;;5031354;28;20489;-65
2021/08/19 09:24:18;;;;;;;1.97;1.87;;;23.00;95.70;;;;;;5034026;28;20528;-65
2021/08/19 09:26:47;;;;;;;1.97;1.87;;;23.20;95.50;;;;;;5035757;28;20499;-66
2021/08/19 09:29:23;;;;;;;1.90;1.73;;;23.80;94.30;;;;;;5035216;28;20556;-66
2021/08/19 09:31:51;;;;;;;2.33;2.13;;;24.10;93.50;;;;;;5027932;28;20465;-65
2021/08/19 09:34:18;;;;;;;3.40;1.80;;;23.90;93.10;;;;;;5033998;28;20570;-66
2021/08/19 09:36:49;;;;;;;2.93;2.73;;;23.50;92.80;;;;;;5028343;28;20444;-66
2021/08/19 09:39:16;;;;;;;2.30;2.10;;;23.40;93.80;;;;;;5033840;28;20475;-66
2021/08/19 09:41:54;;;;;;;2.10;2.00;;;23.20;95.30;;;;;;5032059;28;20516;-66
2021/08/19 09:44:34;;;;;;;2.20;2.10;;;23.10;95.00;;;;;;5039453;28;20521;-66
2021/08/19 09:47:02;;;;;;;1.90;1.80;;;22.90;94.30;;;;;;5030899;28;20472;-66
2021/08/19 09:49:33;;;;;;;1.80;1.73;;;22.70;95.00;;;;;;5037097;28;20443;-66
2021/08/19 09:52:01;;;;;;;2.07;1.97;;;22.70;94.80;;;;;;5036143;28;20499;-66
2021/08/19 09:54:29;;;;;;;1.87;1.77;;;22.70;95.50;;;;;;5035719;28;20487;-66
2021/08/19 09:56:58;;;;;;;1.93;1.83;;;22.50;95.80;;;;;;5034389;28;20554;-66
2021/08/19 09:59:27;;;;;;;1.93;1.80;;;22.60;96.50;;;;;;5033252;28;20559;-66
2021/08/19 10:01:59;;;;;;;1.90;1.80;;;22.70;96.50;;;;;;5032387;28;21202;-66
2021/08/19 10:04:26;;;;;;;2.40;2.20;;;23.00;95.70;;;;;;5036285;28;20989;-66
2021/08/19 10:06:54;;;;;;;1.97;1.87;;;23.10;95.60;;;;;;5036098;28;20467;-66
2021/08/19 10:09:21;;;;;;;1.97;1.87;;;23.10;94.60;;;;;;5035783;28;20512;-66
2021/08/19 10:11:50;;;;;;;2.10;2.00;;;23.00;95.70;;;;;;5035234;28;20452;-66
2021/08/19 10:14:18;;;;;;;1.77;1.67;;;22.70;95.20;;;;;;5034738;28;20471;-66
2021/08/19 10:16:47;;;;;;;2.03;1.93;;;22.30;94.80;;;;;;5035285;28;20525;-66
2021/08/19 10:19:20;;;;;;;2.03;1.93;;;22.40;96.10;;;;;;5033735;28;20464;-66
2021/08/19 10:21:51;;;;;;;1.70;1.60;;;22.30;95.10;;;;;;5035246;28;20491;-66
2021/08/19 10:24:24;;;;;;;2.10;1.90;;;22.30;96.10;;;;;;5035097;28;20472;-66
2021/08/19 10:27:11;;;;;;;1.63;1.60;;;22.60;96.60;;;;;;5034925;28;20989;-66
2021/08/19 10:29:51;;;;;;;3.40;1.80;;;22.90;95.10;;;;;;5034033;28;20469;-66
2021/08/19 10:32:25;;;;;;;1.80;1.70;;;22.90;94.70;;;;;;5035069;28;20611;-66
2021/08/19 10:35:09;;;;;;;1.83;1.73;;;22.80;93.90;;;;;;5035524;28;20459;-66
2021/08/19 10:38:07;;;;;;;1.73;1.63;;;23.10;95.10;;;;;;5035862;28;20800;-66
2021/08/19 10:40:36;;;;;;;2.00;1.90;;;23.40;93.90;;;;;;5034134;28;20468;-66
2021/08/19 10:43:39;;;;;;;1.93;1.83;;;23.90;93.40;;;;;;5037016;28;20500;-67
2021/08/19 10:46:06;;;;;;;1.70;1.60;;;24.40;92.70;;;;;;5024207;28;20520;-67
2021/08/19 10:48:48;;;;;;;1.73;1.63;;;25.10;91.90;;;;;;5034305;28;20429;-67
2021/08/19 10:51:16;;;;;;;1.60;1.50;;;25.20;90.00;;;;;;5033913;28;20489;-67
2021/08/19 10:53:44;;;;;;;1.97;1.87;;;25.20;88.20;;;;;;5035758;28;20470;-67
2021/08/19 10:56:11;;;;;;;1.80;1.70;;;25.70;87.40;;;;;;5036601;28;20482;-67
2021/08/19 10:58:40;;;;;;;1.10;1.10;;;25.40;88.20;;;;;;5034568;28;20815;-67
2021/08/19 11:01:25;;;;;;;1.63;1.53;;;25.50;90.50;;;;;;5033059;28;20480;-67
2021/08/19 11:03:53;;;;;;;1.20;1.20;;;25.20;91.10;;;;;;5030172;28;20451;-67
2021/08/19 11:06:23;;;;;;;1.43;1.17;;;25.00;89.50;;;;;;5027201;28;20465;-67
2021/08/19 11:08:54;;;;;;;1.70;1.60;;;25.10;88.40;;;;;;5030122;28;20451;-67
2021/08/19 11:11:35;;;;;;;1.50;1.40;;;25.00;89.70;;;;;;5034895;28;20825;-67
2021/08/19 11:14:08;;;;;;;1.50;1.40;;;25.00;91.70;;;;;;5035373;28;20449;-67
2021/08/19 11:16:38;;;;;;;1.60;1.50;;;24.80;92.10;;;;;;5035499;28;20471;-67
2021/08/19 11:19:12;;;;;;;12.80;6.90;;;24.60;91.30;;;;;;5034857;28;20522;-67
2021/08/19 11:21:42;;;;;;;7.73;4.80;;;24.60;92.90;;;;;;5033915;28;20434;-67
2021/08/19 11:24:09;;;;;;;2.67;1.90;;;24.50;91.50;;;;;;5032697;28;21004;-67
2021/08/19 11:26:40;;;;;;;1.10;1.10;;;24.40;91.00;;;;;;5031606;28;20515;-67
2021/08/19 11:29:07;;;;;;;1.43;1.33;;;24.30;90.00;;;;;;5032455;28;20465;-67
2021/08/19 11:31:38;;;;;;;2.40;1.83;;;24.70;87.30;;;;;;5035544;28;20559;-67
2021/08/19 11:34:06;;;;;;;2.30;1.50;;;24.70;90.60;;;;;;5035530;28;20459;-67
2021/08/19 11:36:35;;;;;;;2.10;2.00;;;24.60;92.20;;;;;;5033437;28;21233;-67
2021/08/19 11:39:05;;;;;;;1.53;1.40;;;24.60;93.20;;;;;;5031043;28;20545;-67
2021/08/19 11:41:32;;;;;;;1.33;1.30;;;24.70;88.40;;;;;;5031365;28;20522;-67
2021/08/19 11:44:01;;;;;;;2.00;1.90;;;24.70;89.80;;;;;;5033084;28;20507;-67
2021/08/19 11:46:29;;;;;;;1.73;1.63;;;24.40;86.50;;;;;;5034309;28;20471;-67
2021/08/19 11:48:58;;;;;;;2.00;1.53;;;24.50;88.00;;;;;;5033784;28;20467;-67
2021/08/19 11:51:30;;;;;;;1.50;1.40;;;24.50;88.20;;;;;;5034659;28;21415;-67
2021/08/19 11:53:59;;;;;;;1.60;1.50;;;24.30;91.10;;;;;;5033379;28;20458;-67
2021/08/19 11:56:32;;;;;;;1.60;1.50;;;23.90;91.10;;;;;;5034259;28;20429;-67
2021/08/19 11:59:04;;;;;;;1.70;1.60;;;23.60;90.60;;;;;;5040544;28;20934;-67
2021/08/19 12:01:32;;;;;;;1.80;1.70;;;23.30;92.20;;;;;;5035083;28;20813;-67
2021/08/19 12:03:59;;;;;;;1.53;1.43;;;22.80;93.30;;;;;;5035706;28;20495;-66
2021/08/19 12:06:28;;;;;;;3.30;1.53;;;22.40;93.70;;;;;;5040138;28;20470;-67
2021/08/19 12:08:57;;;;;;;1.70;1.60;;;22.20;93.90;;;;;;5035638;28;20455;-67
2021/08/19 12:11:26;;;;;;;5.63;2.07;;;22.00;95.10;;;;;;5036483;28;20981;-67
2021/08/19 12:13:55;;;;;;;1.60;1.50;;;21.60;94.20;;;;;;5036784;28;20464;-67
2021/08/19 12:16:23;;;;;;;1.70;1.60;;;21.50;94.50;;;;;;5034847;28;20681;-67
2021/08/19 12:19:07;;;;;;;2.50;1.40;;;21.60;93.60;;;;;;5033631;28;20473;-68
2021/08/19 12:21:35;;;;;;;1.07;1.07;;;21.80;94.20;;;;;;5036816;28;20466;-67
2021/08/19 12:31:51;;;;;;;1.70;1.60;;;23.30;93.10;;;;;;5953940;22;20764;-67
2021/08/19 12:34:19;;;;;;;2.77;1.77;;;23.80;91.30;;;;;;5052597;28;20514;-66
2021/08/19 12:36:46;;;;;;;2.07;1.87;;;23.70;90.50;;;;;;5055988;28;20464;-67
2021/08/19 12:39:22;;;;;;;1.40;1.30;;;24.10;92.20;;;;;;5059686;28;20459;-67
2021/08/19 12:41:50;;;;;;;1.43;1.33;;;24.40;90.70;;;;;;5050872;28;20459;-67
2021/08/19 12:44:19;;;;;;;1.90;1.80;;;24.40;90.50;;;;;;5057393;28;20514;-67
2021/08/19 12:46:48;;;;;;;1.60;1.50;;;24.60;90.10;;;;;;5055149;28;20437;-67
2021/08/19 12:49:28;;;;;;;1.80;1.70;;;24.90;88.00;;;;;;5057434;28;20458;-67
2021/08/19 12:52:14;;;;;;;2.03;1.80;;;24.90;91.20;;;;;;5059174;28;20566;-68
2021/08/19 12:54:43;;;;;;;2.50;1.70;;;25.10;90.70;;;;;;5058295;28;20901;-67
2021/08/19 12:57:10;;;;;;;1.60;1.50;;;25.10;91.60;;;;;;5053118;28;20552;-68
2021/08/19 12:59:39;;;;;;;1.83;1.73;;;24.90;89.10;;;;;;5056396;28;20570;-68
2021/08/19 13:02:05;;;;;;;1.33;1.33;;;24.60;89.20;;;;;;5058600;28;20466;-69